sensor_id;sensor_type;location;lat;lon;timestamp;pressure;altitude;pressure_sealevel;temperature;humidity
44027;BME280;29696;55.698;37.460;2023-01-29T00:01:45;99696.59;;;-1.48;76.52
44027;BME280;29696;55.698;37.460;2023-01-29T00:04:11;99704.28;;;-1.47;76.04
44027;BME280;29696;55.698;37.460;2023-01-29T00:06:38;99699.31;;;-1.51;75.97
44027;BME280;29696;55.698;37.460;2023-01-29T00:09:05;99703.66;;;-1.52;75.66
44027;BME280;29696;55.698;37.460;2023-01-29T00:11:31;99694.97;;;-1.51;75.87
44027;BME280;29696;55.698;37.460;2023-01-29T00:13:57;99693.28;;;-1.52;75.73
44027;BME280;29696;55.698;37.460;2023-01-29T00:16:24;99691.78;;;-1.59;75.88
44027;BME280;29696;55.698;37.460;2023-01-29T00:18:50;99696.94;;;-1.57;75.77
44027;BME280;29696;55.698;37.460;2023-01-29T00:21:18;99698.03;;;-1.65;75.54
44027;BME280;29696;55.698;37.460;2023-01-29T00:23:45;99692.97;;;-1.68;76.26
44027;BME280;29696;55.698;37.460;2023-01-29T00:26:12;99696.53;;;-1.70;76.47
44027;BME280;29696;55.698;37.460;2023-01-29T00:28:43;99693.25;;;-1.75;76.34
44027;BME280;29696;55.698;37.460;2023-01-29T00:31:11;99691.63;;;-1.78;76.55
44027;BME280;29696;55.698;37.460;2023-01-29T00:33:38;99689.16;;;-1.81;76.88
44027;BME280;29696;55.698;37.460;2023-01-29T00:36:09;99691.78;;;-1.83;76.80
44027;BME280;29696;55.698;37.460;2023-01-29T00:38:37;99688.47;;;-1.86;76.77
44027;BME280;29696;55.698;37.460;2023-01-29T00:41:30;99686.44;;;-1.78;76.78
44027;BME280;29696;55.698;37.460;2023-01-29T00:44:16;99690.50;;;-1.94;76.79
44027;BME280;29696;55.698;37.460;2023-01-29T00:47:02;99692.22;;;-1.95;76.97
44027;BME280;29696;55.698;37.460;2023-01-29T00:49:28;99684.50;;;-1.96;77.07
44027;BME280;29696;55.698;37.460;2023-01-29T00:51:55;99675.91;;;-1.97;76.72
44027;BME280;29696;55.698;37.460;2023-01-29T00:54:40;99669.34;;;-2.07;75.48
44027;BME280;29696;55.698;37.460;2023-01-29T00:57:06;99683.22;;;-2.10;74.66
44027;BME280;29696;55.698;37.460;2023-01-29T00:59:33;99690.16;;;-2.10;74.71
44027;BME280;29696;55.698;37.460;2023-01-29T01:01:59;99688.47;;;-2.11;74.34
44027;BME280;29696;55.698;37.460;2023-01-29T01:04:44;99681.72;;;-2.15;74.00
44027;BME280;29696;55.698;37.460;2023-01-29T01:07:10;99670.50;;;-2.16;73.58
44027;BME280;29696;55.698;37.460;2023-01-29T01:09:36;99675.66;;;-2.14;73.56
44027;BME280;29696;55.698;37.460;2023-01-29T01:12:21;99677.28;;;-2.12;73.13
44027;BME280;29696;55.698;37.460;2023-01-29T01:14:48;99670.41;;;-2.13;72.94
44027;BME280;29696;55.698;37.460;2023-01-29T01:17:15;99670.47;;;-2.14;72.48
44027;BME280;29696;55.698;37.460;2023-01-29T01:19:41;99670.50;;;-2.16;71.87
44027;BME280;29696;55.698;37.460;2023-01-29T01:22:07;99676.66;;;-2.18;71.46
44027;BME280;29696;55.698;37.460;2023-01-29T01:24:34;99675.75;;;-2.17;71.48
44027;BME280;29696;55.698;37.460;2023-01-29T01:27:00;99674.81;;;-2.15;71.29
44027;BME280;29696;55.698;37.460;2023-01-29T01:29:26;99673.28;;;-2.20;70.69
44027;BME280;29696;55.698;37.460;2023-01-29T01:31:53;99686.00;;;-2.14;70.80
44027;BME280;29696;55.698;37.460;2023-01-29T01:34:20;99680.81;;;-2.14;70.76
44027;BME280;29696;55.698;37.460;2023-01-29T01:36:47;99670.41;;;-2.13;70.95
44027;BME280;29696;55.698;37.460;2023-01-29T01:39:14;99664.28;;;-2.10;71.24
44027;BME280;29696;55.698;37.460;2023-01-29T01:41:40;99670.38;;;-2.11;70.92
44027;BME280;29696;55.698;37.460;2023-01-29T01:47:14;99663.22;;;-2.04;69.97
44027;BME280;29696;55.698;37.460;2023-01-29T01:49:43;99657.13;;;-2.03;69.96
44027;BME280;29696;55.698;37.460;2023-01-29T01:52:10;99644.19;;;-2.03;70.09
44027;BME280;29696;55.698;37.460;2023-01-29T01:54:38;99644.03;;;-1.99;70.19
44027;BME280;29696;55.698;37.460;2023-01-29T01:57:09;99657.59;;;-1.92;69.84
44027;BME280;29696;55.698;37.460;2023-01-29T01:59:50;99651.44;;;-1.88;69.95
44027;BME280;29696;55.698;37.460;2023-01-29T02:02:19;99643.19;;;-1.99;69.56
44027;BME280;29696;55.698;37.460;2023-01-29T02:05:05;99639.56;;;-1.95;69.32
44027;BME280;29696;55.698;37.460;2023-01-29T02:07:51;99634.47;;;-1.97;68.95
44027;BME280;29696;55.698;37.460;2023-01-29T02:10:41;99632.72;;;-1.96;68.90
44027;BME280;29696;55.698;37.460;2023-01-29T02:13:08;99633.06;;;-2.05;68.70
44027;BME280;29696;55.698;37.460;2023-01-29T02:15:35;99630.47;;;-2.05;68.19
44027;BME280;29696;55.698;37.460;2023-01-29T02:18:02;99626.34;;;-2.11;68.16
44027;BME280;29696;55.698;37.460;2023-01-29T02:20:29;99625.41;;;-2.09;68.48
44027;BME280;29696;55.698;37.460;2023-01-29T02:23:49;99628.50;;;-1.99;69.18
44027;BME280;29696;55.698;37.460;2023-01-29T02:27:04;99615.53;;;-1.99;68.99
44027;BME280;29696;55.698;37.460;2023-01-29T02:30:06;99607.94;;;-2.03;68.93
44027;BME280;29696;55.698;37.460;2023-01-29T02:39:26;99583.16;;;-2.11;68.66
44027;BME280;29696;55.698;37.460;2023-01-29T02:45:14;99591.84;;;-2.12;68.71
44027;BME280;29696;55.698;37.460;2023-01-29T02:48:06;99584.69;;;-2.05;68.58
44027;BME280;29696;55.698;37.460;2023-01-29T02:50:43;99580.66;;;-2.12;68.63
44027;BME280;29696;55.698;37.460;2023-01-29T02:53:33;99586.38;;;-2.04;69.18
44027;BME280;29696;55.698;37.460;2023-01-29T02:59:19;99563.88;;;-2.02;69.84
44027;BME280;29696;55.698;37.460;2023-01-29T03:01:52;99562.06;;;-2.00;69.67
44027;BME280;29696;55.698;37.460;2023-01-29T03:04:26;99566.41;;;-2.00;68.96
44027;BME280;29696;55.698;37.460;2023-01-29T03:07:05;99555.16;;;-1.99;69.11
44027;BME280;29696;55.698;37.460;2023-01-29T03:09:40;99559.72;;;-2.06;69.18
44027;BME280;29696;55.698;37.460;2023-01-29T03:12:12;99560.59;;;-2.07;69.36
44027;BME280;29696;55.698;37.460;2023-01-29T03:15:04;99547.72;;;-2.09;69.33
44027;BME280;29696;55.698;37.460;2023-01-29T03:17:54;99544.28;;;-2.09;69.12
44027;BME280;29696;55.698;37.460;2023-01-29T03:20:29;99546.13;;;-2.13;69.22
44027;BME280;29696;55.698;37.460;2023-01-29T03:23:08;99536.56;;;-2.11;69.25
44027;BME280;29696;55.698;37.460;2023-01-29T03:25:37;99524.81;;;-2.19;69.15
44027;BME280;29696;55.698;37.460;2023-01-29T03:28:29;99529.00;;;-2.15;69.01
44027;BME280;29696;55.698;37.460;2023-01-29T03:31:15;99523.81;;;-2.15;69.35
44027;BME280;29696;55.698;37.460;2023-01-29T03:34:22;99513.16;;;-2.08;69.28
44027;BME280;29696;55.698;37.460;2023-01-29T03:37:16;99507.41;;;-2.16;68.97
44027;BME280;29696;55.698;37.460;2023-01-29T03:39:44;99510.06;;;-2.17;69.17
44027;BME280;29696;55.698;37.460;2023-01-29T03:51:52;99492.88;;;-2.18;69.51
44027;BME280;29696;55.698;37.460;2023-01-29T03:54:27;99476.75;;;-2.26;68.98
44027;BME280;29696;55.698;37.460;2023-01-29T04:14:12;99458.88;;;-2.33;68.54
44027;BME280;29696;55.698;37.460;2023-01-29T04:16:47;99449.47;;;-2.35;68.97
44027;BME280;29696;55.698;37.460;2023-01-29T04:19:19;99454.09;;;-2.43;69.82
44027;BME280;29696;55.698;37.460;2023-01-29T04:21:49;99464.41;;;-2.42;69.91
44027;BME280;29696;55.698;37.460;2023-01-29T04:24:18;99462.69;;;-2.43;69.94
44027;BME280;29696;55.698;37.460;2023-01-29T04:36:57;99457.97;;;-2.32;70.16
44027;BME280;29696;55.698;37.460;2023-01-29T04:39:14;99460.44;;;-2.28;70.03
44027;BME280;29696;55.698;37.460;2023-01-29T04:41:53;99449.41;;;-2.34;70.28
44027;BME280;29696;55.698;37.460;2023-01-29T04:44:36;99446.91;;;-2.35;70.03
44027;BME280;29696;55.698;37.460;2023-01-29T04:53:23;99447.50;;;-2.28;70.42
44027;BME280;29696;55.698;37.460;2023-01-29T05:07:56;99425.34;;;-2.36;70.25
44027;BME280;29696;55.698;37.460;2023-01-29T05:10:25;99429.72;;;-2.38;70.28
44027;BME280;29696;55.698;37.460;2023-01-29T05:12:59;99429.56;;;-2.33;70.40
44027;BME280;29696;55.698;37.460;2023-01-29T05:15:33;99434.75;;;-2.33;70.70
44027;BME280;29696;55.698;37.460;2023-01-29T05:18:00;99436.34;;;-2.31;70.46
44027;BME280;29696;55.698;37.460;2023-01-29T05:20:32;99431.13;;;-2.29;70.67
44027;BME280;29696;55.698;37.460;2023-01-29T05:22:59;99440.75;;;-2.33;70.52
44027;BME280;29696;55.698;37.460;2023-01-29T05:25:28;99432.88;;;-2.30;70.75
44027;BME280;29696;55.698;37.460;2023-01-29T05:27:55;99426.91;;;-2.32;70.55
44027;BME280;29696;55.698;37.460;2023-01-29T05:30:35;99429.34;;;-2.27;70.43
44027;BME280;29696;55.698;37.460;2023-01-29T05:33:03;99436.22;;;-2.27;70.32
44027;BME280;29696;55.698;37.460;2023-01-29T05:35:30;99442.31;;;-2.28;70.20
44027;BME280;29696;55.698;37.460;2023-01-29T05:37:56;99439.69;;;-2.27;70.40
44027;BME280;29696;55.698;37.460;2023-01-29T05:40:24;99442.19;;;-2.25;70.52
44027;BME280;29696;55.698;37.460;2023-01-29T05:42:50;99443.03;;;-2.25;70.49
44027;BME280;29696;55.698;37.460;2023-01-29T05:45:17;99432.81;;;-2.28;70.27
44027;BME280;29696;55.698;37.460;2023-01-29T05:47:44;99447.34;;;-2.24;70.87
44027;BME280;29696;55.698;37.460;2023-01-29T05:50:11;99437.81;;;-2.23;71.00
44027;BME280;29696;55.698;37.460;2023-01-29T05:52:38;99442.94;;;-2.22;70.90
44027;BME280;29696;55.698;37.460;2023-01-29T05:55:05;99448.78;;;-2.17;70.92
44027;BME280;29696;55.698;37.460;2023-01-29T05:57:32;99446.19;;;-2.17;70.92
44027;BME280;29696;55.698;37.460;2023-01-29T05:59:58;99436.66;;;-2.16;71.04
44027;BME280;29696;55.698;37.460;2023-01-29T06:02:25;99438.25;;;-2.12;71.26
44027;BME280;29696;55.698;37.460;2023-01-29T06:04:54;99441.63;;;-2.10;71.01
44027;BME280;29696;55.698;37.460;2023-01-29T06:07:20;99433.81;;;-2.09;71.13
44027;BME280;29696;55.698;37.460;2023-01-29T06:09:46;99435.47;;;-2.08;70.53
44027;BME280;29696;55.698;37.460;2023-01-29T06:12:13;99437.81;;;-2.01;70.31
44027;BME280;29696;55.698;37.460;2023-01-29T06:14:39;99442.22;;;-2.03;70.26
44027;BME280;29696;55.698;37.460;2023-01-29T06:17:05;99442.28;;;-2.05;70.27
44027;BME280;29696;55.698;37.460;2023-01-29T06:19:31;99433.84;;;-2.10;70.08
44027;BME280;29696;55.698;37.460;2023-01-29T06:21:58;99427.72;;;-2.08;70.04
44027;BME280;29696;55.698;37.460;2023-01-29T06:24:24;99420.75;;;-2.05;70.39
44027;BME280;29696;55.698;37.460;2023-01-29T06:26:50;99415.47;;;-2.04;70.17
44027;BME280;29696;55.698;37.460;2023-01-29T06:29:17;99416.41;;;-2.05;70.02
44027;BME280;29696;55.698;37.460;2023-01-29T06:31:43;99427.66;;;-2.06;69.94
44027;BME280;29696;55.698;37.460;2023-01-29T06:34:09;99423.19;;;-2.02;70.01
44027;BME280;29696;55.698;37.460;2023-01-29T06:36:36;99409.34;;;-2.01;70.02
44027;BME280;29696;55.698;37.460;2023-01-29T06:39:02;99411.88;;;-2.00;69.34
44027;BME280;29696;55.698;37.460;2023-01-29T06:41:29;99421.41;;;-2.00;69.69
44027;BME280;29696;55.698;37.460;2023-01-29T06:43:55;99419.41;;;-1.94;69.97
44027;BME280;29696;55.698;37.460;2023-01-29T06:46:22;99420.91;;;-1.88;69.40
44027;BME280;29696;55.698;37.460;2023-01-29T06:48:48;99414.81;;;-1.87;68.95
44027;BME280;29696;55.698;37.460;2023-01-29T06:51:14;99407.19;;;-1.90;69.02
44027;BME280;29696;55.698;37.460;2023-01-29T06:53:40;99410.56;;;-1.88;69.08
44027;BME280;29696;55.698;37.460;2023-01-29T06:56:07;99408.84;;;-1.89;69.10
44027;BME280;29696;55.698;37.460;2023-01-29T06:58:37;99404.38;;;-1.86;68.92
44027;BME280;29696;55.698;37.460;2023-01-29T07:01:08;99394.94;;;-1.87;68.81
44027;BME280;29696;55.698;37.460;2023-01-29T07:03:36;99384.84;;;-1.93;68.79
44027;BME280;29696;55.698;37.460;2023-01-29T07:06:03;99380.50;;;-1.92;68.93
44027;BME280;29696;55.698;37.460;2023-01-29T07:08:30;99367.78;;;-1.98;68.75
44027;BME280;29696;55.698;37.460;2023-01-29T07:11:00;99374.72;;;-1.99;68.68
44027;BME280;29696;55.698;37.460;2023-01-29T07:13:26;99380.97;;;-2.04;68.81
44027;BME280;29696;55.698;37.460;2023-01-29T07:15:53;99374.19;;;-2.07;68.74
44027;BME280;29696;55.698;37.460;2023-01-29T07:18:22;99375.09;;;-2.08;68.83
44027;BME280;29696;55.698;37.460;2023-01-29T07:20:49;99376.00;;;-2.09;68.62
44027;BME280;29696;55.698;37.460;2023-01-29T07:23:15;99376.66;;;-2.04;68.02
44027;BME280;29696;55.698;37.460;2023-01-29T07:25:42;99374.81;;;-2.00;67.75
44027;BME280;29696;55.698;37.460;2023-01-29T07:28:09;99368.59;;;-1.96;67.25
44027;BME280;29696;55.698;37.460;2023-01-29T07:30:35;99370.38;;;-1.98;66.75
44027;BME280;29696;55.698;37.460;2023-01-29T07:33:08;99367.66;;;-1.95;67.19
44027;BME280;29696;55.698;37.460;2023-01-29T07:35:39;99371.28;;;-1.99;67.65
44027;BME280;29696;55.698;37.460;2023-01-29T07:38:07;99365.66;;;-2.09;68.15
44027;BME280;29696;55.698;37.460;2023-01-29T07:40:34;99361.47;;;-2.13;68.30
44027;BME280;29696;55.698;37.460;2023-01-29T07:43:02;99356.50;;;-2.18;68.26
44027;BME280;29696;55.698;37.460;2023-01-29T07:45:29;99360.84;;;-2.18;68.16
44027;BME280;29696;55.698;37.460;2023-01-29T07:47:56;99352.75;;;-2.11;67.88
44027;BME280;29696;55.698;37.460;2023-01-29T07:50:24;99356.56;;;-1.97;68.23
44027;BME280;29696;55.698;37.460;2023-01-29T07:52:51;99335.72;;;-1.94;67.15
44027;BME280;29696;55.698;37.460;2023-01-29T07:55:19;99337.84;;;-1.84;66.44
44027;BME280;29696;55.698;37.460;2023-01-29T07:57:45;99341.00;;;-1.77;66.38
44027;BME280;29696;55.698;37.460;2023-01-29T08:00:12;99345.88;;;-1.69;65.91
44027;BME280;29696;55.698;37.460;2023-01-29T08:02:40;99345.53;;;-1.62;65.42
44027;BME280;29696;55.698;37.460;2023-01-29T08:05:07;99346.16;;;-1.55;65.89
44027;BME280;29696;55.698;37.460;2023-01-29T08:07:33;99351.19;;;-1.52;65.46
44027;BME280;29696;55.698;37.460;2023-01-29T08:09:59;99347.66;;;-1.49;64.86
44027;BME280;29696;55.698;37.460;2023-01-29T08:12:26;99331.09;;;-1.47;65.55
44027;BME280;29696;55.698;37.460;2023-01-29T08:14:52;99343.28;;;-1.49;64.64
44027;BME280;29696;55.698;37.460;2023-01-29T08:17:18;99329.63;;;-1.52;64.77
44027;BME280;29696;55.698;37.460;2023-01-29T08:19:44;99338.88;;;-1.47;64.74
44027;BME280;29696;55.698;37.460;2023-01-29T08:22:11;99330.06;;;-1.43;64.48
44027;BME280;29696;55.698;37.460;2023-01-29T08:24:37;99313.56;;;-1.40;64.51
44027;BME280;29696;55.698;37.460;2023-01-29T08:27:04;99313.97;;;-1.30;64.00
44027;BME280;29696;55.698;37.460;2023-01-29T08:29:30;99326.88;;;-1.29;63.61
44027;BME280;29696;55.698;37.460;2023-01-29T08:31:56;99322.69;;;-1.31;63.50
44027;BME280;29696;55.698;37.460;2023-01-29T08:34:23;99315.88;;;-1.34;63.89
44027;BME280;29696;55.698;37.460;2023-01-29T08:36:49;99314.16;;;-1.35;63.48
44027;BME280;29696;55.698;37.460;2023-01-29T08:39:15;99321.06;;;-1.34;63.81
44027;BME280;29696;55.698;37.460;2023-01-29T08:41:42;99315.88;;;-1.34;63.52
44027;BME280;29696;55.698;37.460;2023-01-29T08:44:08;99319.16;;;-1.30;63.71
44027;BME280;29696;55.698;37.460;2023-01-29T08:46:34;99321.63;;;-1.27;63.87
44027;BME280;29696;55.698;37.460;2023-01-29T08:49:02;99321.53;;;-1.26;63.64
44027;BME280;29696;55.698;37.460;2023-01-29T08:51:28;99312.09;;;-1.27;63.99
44027;BME280;29696;55.698;37.460;2023-01-29T08:53:55;99319.81;;;-1.25;63.77
44027;BME280;29696;55.698;37.460;2023-01-29T08:56:21;99319.72;;;-1.24;63.86
44027;BME280;29696;55.698;37.460;2023-01-29T08:58:47;99313.56;;;-1.21;63.96
44027;BME280;29696;55.698;37.460;2023-01-29T09:01:13;99313.53;;;-1.20;63.61
44027;BME280;29696;55.698;37.460;2023-01-29T09:03:40;99307.34;;;-1.17;63.62
44027;BME280;29696;55.698;37.460;2023-01-29T09:06:10;99311.50;;;-1.13;63.82
44027;BME280;29696;55.698;37.460;2023-01-29T09:08:37;99309.50;;;-1.08;63.88
44027;BME280;29696;55.698;37.460;2023-01-29T09:11:05;99307.66;;;-1.04;63.15
44027;BME280;29696;55.698;37.460;2023-01-29T09:13:32;99307.50;;;-1.01;63.31
44027;BME280;29696;55.698;37.460;2023-01-29T09:16:00;99308.25;;;-0.99;63.16
44027;BME280;29696;55.698;37.460;2023-01-29T09:18:28;99316.91;;;-0.99;62.99
44027;BME280;29696;55.698;37.460;2023-01-29T09:20:55;99312.59;;;-1.00;63.00
44027;BME280;29696;55.698;37.460;2023-01-29T09:23:22;99318.91;;;-1.05;62.72
44027;BME280;29696;55.698;37.460;2023-01-29T09:25:48;99305.34;;;-1.10;62.36
44027;BME280;29696;55.698;37.460;2023-01-29T09:28:15;99294.22;;;-1.14;62.73
44027;BME280;29696;55.698;37.460;2023-01-29T09:30:43;99296.78;;;-1.12;63.23
44027;BME280;29696;55.698;37.460;2023-01-29T09:33:09;99289.81;;;-1.12;63.27
44027;BME280;29696;55.698;37.460;2023-01-29T09:35:36;99293.94;;;-1.08;63.22
44027;BME280;29696;55.698;37.460;2023-01-29T09:38:02;99279.97;;;-1.04;63.03
44027;BME280;29696;55.698;37.460;2023-01-29T09:43:47;99268.78;;;-0.87;62.92
44027;BME280;29696;55.698;37.460;2023-01-29T09:46:34;99277.28;;;-0.83;62.65
44027;BME280;29696;55.698;37.460;2023-01-29T09:52:07;99275.00;;;-0.72;62.30
44027;BME280;29696;55.698;37.460;2023-01-29T09:54:56;99268.09;;;-0.72;62.77
44027;BME280;29696;55.698;37.460;2023-01-29T09:57:32;99265.72;;;-0.76;62.61
44027;BME280;29696;55.698;37.460;2023-01-29T09:59:59;99258.13;;;-0.81;62.20
44027;BME280;29696;55.698;37.460;2023-01-29T10:03:14;99251.53;;;-0.69;62.62
44027;BME280;29696;55.698;37.460;2023-01-29T10:05:45;99241.91;;;-0.67;62.16
44027;BME280;29696;55.698;37.460;2023-01-29T10:12:10;99239.91;;;-0.79;63.20
44027;BME280;29696;55.698;37.460;2023-01-29T10:18:18;99234.44;;;-0.73;63.64
44027;BME280;29696;55.698;37.460;2023-01-29T10:28:40;99190.25;;;-0.72;62.58
44027;BME280;29696;55.698;37.460;2023-01-29T10:31:24;99191.28;;;-0.57;62.67
44027;BME280;29696;55.698;37.460;2023-01-29T10:33:57;99184.53;;;-0.61;62.42
44027;BME280;29696;55.698;37.460;2023-01-29T10:36:33;99175.75;;;-0.58;62.56
44027;BME280;29696;55.698;37.460;2023-01-29T10:38:59;99175.22;;;-0.65;62.28
44027;BME280;29696;55.698;37.460;2023-01-29T10:42:14;99161.34;;;-0.47;63.18
44027;BME280;29696;55.698;37.460;2023-01-29T11:01:15;99147.91;;;-0.55;63.10
44027;BME280;29696;55.698;37.460;2023-01-29T11:03:42;99136.47;;;-0.51;62.95
44027;BME280;29696;55.698;37.460;2023-01-29T11:09:43;99133.78;;;-0.32;63.38
44027;BME280;29696;55.698;37.460;2023-01-29T11:12:14;99129.81;;;-0.39;63.01
44027;BME280;29696;55.698;37.460;2023-01-29T11:14:54;99122.72;;;-0.35;62.82
44027;BME280;29696;55.698;37.460;2023-01-29T11:17:23;99122.31;;;-0.45;62.76
44027;BME280;29696;55.698;37.460;2023-01-29T11:19:51;99127.81;;;-0.51;63.35
44027;BME280;29696;55.698;37.460;2023-01-29T11:22:20;99124.38;;;-0.52;63.49
44027;BME280;29696;55.698;37.460;2023-01-29T11:25:17;99126.44;;;-0.41;63.86
44027;BME280;29696;55.698;37.460;2023-01-29T11:27:55;99133.56;;;-0.44;63.99
44027;BME280;29696;55.698;37.460;2023-01-29T11:30:38;99119.34;;;-0.37;63.79
44027;BME280;29696;55.698;37.460;2023-01-29T11:33:21;99114.97;;;-0.37;63.83
44027;BME280;29696;55.698;37.460;2023-01-29T11:35:50;99120.19;;;-0.37;63.62
44027;BME280;29696;55.698;37.460;2023-01-29T11:38:27;99130.91;;;-0.27;63.74
44027;BME280;29696;55.698;37.460;2023-01-29T11:41:13;99120.31;;;-0.22;63.44
44027;BME280;29696;55.698;37.460;2023-01-29T11:43:43;99118.25;;;-0.33;63.69
44027;BME280;29696;55.698;37.460;2023-01-29T11:46:14;99112.31;;;-0.35;64.09
44027;BME280;29696;55.698;37.460;2023-01-29T11:48:47;99106.53;;;-0.40;64.23
44027;BME280;29696;55.698;37.460;2023-01-29T11:51:22;99106.19;;;-0.34;64.01
44027;BME280;29696;55.698;37.460;2023-01-29T11:54:01;99114.09;;;-0.36;63.89
44027;BME280;29696;55.698;37.460;2023-01-29T11:56:38;99105.00;;;-0.44;64.16
44027;BME280;29696;55.698;37.460;2023-01-29T12:02:41;99095.53;;;-0.46;64.69
44027;BME280;29696;55.698;37.460;2023-01-29T12:05:18;99093.19;;;-0.50;64.38
44027;BME280;29696;55.698;37.460;2023-01-29T12:07:51;99090.78;;;-0.55;64.51
44027;BME280;29696;55.698;37.460;2023-01-29T12:10:48;99092.84;;;-0.44;64.71
44027;BME280;29696;55.698;37.460;2023-01-29T12:13:34;99098.06;;;-0.44;64.64
44027;BME280;29696;55.698;37.460;2023-01-29T12:16:25;99089.50;;;-0.46;64.56
44027;BME280;29696;55.698;37.460;2023-01-29T12:19:00;99093.56;;;-0.58;64.78
44027;BME280;29696;55.698;37.460;2023-01-29T12:21:35;99090.34;;;-0.63;64.94
44027;BME280;29696;55.698;37.460;2023-01-29T12:27:34;99089.50;;;-0.63;65.47
44027;BME280;29696;55.698;37.460;2023-01-29T12:30:15;99084.78;;;-0.73;65.20
44027;BME280;29696;55.698;37.460;2023-01-29T12:36:25;99089.06;;;-0.72;66.01
44027;BME280;29696;55.698;37.460;2023-01-29T12:38:53;99084.47;;;-0.84;66.08
44027;BME280;29696;55.698;37.460;2023-01-29T12:41:40;99090.28;;;-0.79;66.02
44027;BME280;29696;55.698;37.460;2023-01-29T12:47:43;99087.97;;;-0.85;66.52
44027;BME280;29696;55.698;37.460;2023-01-29T12:50:21;99092.50;;;-0.88;66.61
44027;BME280;29696;55.698;37.460;2023-01-29T12:52:52;99093.78;;;-0.97;66.93
44027;BME280;29696;55.698;37.460;2023-01-29T12:55:32;99092.84;;;-0.96;67.34
44027;BME280;29696;55.698;37.460;2023-01-29T12:58:04;99094.06;;;-1.03;67.42
44027;BME280;29696;55.698;37.460;2023-01-29T13:00:37;99092.25;;;-1.01;67.43
44027;BME280;29696;55.698;37.460;2023-01-29T13:03:41;99095.22;;;-0.92;67.53
44027;BME280;29696;55.698;37.460;2023-01-29T13:06:14;99079.34;;;-1.03;67.30
44027;BME280;29696;55.698;37.460;2023-01-29T13:08:50;99086.09;;;-0.99;67.54
44027;BME280;29696;55.698;37.460;2023-01-29T13:11:23;99074.84;;;-0.99;67.46
44027;BME280;29696;55.698;37.460;2023-01-29T13:17:08;99071.13;;;-0.94;67.70
44027;BME280;29696;55.698;37.460;2023-01-29T13:19:41;99072.41;;;-1.02;67.88
44027;BME280;29696;55.698;37.460;2023-01-29T13:22:21;99066.31;;;-1.01;68.15
44027;BME280;29696;55.698;37.460;2023-01-29T13:24:48;99070.19;;;-1.10;68.04
44027;BME280;29696;55.698;37.460;2023-01-29T13:27:24;99059.53;;;-1.04;68.27
44027;BME280;29696;55.698;37.460;2023-01-29T13:29:52;99065.03;;;-1.10;68.06
44027;BME280;29696;55.698;37.460;2023-01-29T13:32:30;99064.78;;;-1.05;68.39
44027;BME280;29696;55.698;37.460;2023-01-29T13:35:00;99067.75;;;-1.13;68.05
44027;BME280;29696;55.698;37.460;2023-01-29T13:37:37;99060.88;;;-1.14;68.01
44027;BME280;29696;55.698;37.460;2023-01-29T13:40:06;99068.91;;;-1.19;68.16
44027;BME280;29696;55.698;37.460;2023-01-29T13:42:53;99071.03;;;-1.09;68.57
44027;BME280;29696;55.698;37.460;2023-01-29T13:45:23;99058.38;;;-1.16;68.75
44027;BME280;29696;55.698;37.460;2023-01-29T13:47:51;99057.59;;;-1.18;68.46
44027;BME280;29696;55.698;37.460;2023-01-29T13:50:29;99058.38;;;-1.16;68.44
44027;BME280;29696;55.698;37.460;2023-01-29T13:53:01;99057.06;;;-1.24;68.90
44027;BME280;29696;55.698;37.460;2023-01-29T13:55:36;99061.25;;;-1.22;68.79
44027;BME280;29696;55.698;37.460;2023-01-29T14:04:34;99041.97;;;-1.33;69.06
44027;BME280;29696;55.698;37.460;2023-01-29T14:07:01;99039.66;;;-1.40;69.69
44027;BME280;29696;55.698;37.460;2023-01-29T14:10:15;99044.53;;;-1.33;69.74
44027;BME280;29696;55.698;37.460;2023-01-29T14:12:43;99035.75;;;-1.48;69.73
44027;BME280;29696;55.698;37.460;2023-01-29T14:15:30;99032.81;;;-1.41;70.19
44027;BME280;29696;55.698;37.460;2023-01-29T14:24:07;99034.78;;;-1.46;70.59
44027;BME280;29696;55.698;37.460;2023-01-29T14:26:57;99031.75;;;-1.36;70.42
44027;BME280;29696;55.698;37.460;2023-01-29T14:29:25;99032.19;;;-1.46;70.28
44027;BME280;29696;55.698;37.460;2023-01-29T14:32:19;99028.31;;;-1.37;70.51
44027;BME280;29696;55.698;37.460;2023-01-29T14:34:48;99026.84;;;-1.43;70.24
44027;BME280;29696;55.698;37.460;2023-01-29T14:37:37;99023.72;;;-1.32;70.35
44027;BME280;29696;55.698;37.460;2023-01-29T14:40:26;99027.09;;;-1.30;70.45
44027;BME280;29696;55.698;37.460;2023-01-29T14:43:24;99030.38;;;-1.26;70.44
44027;BME280;29696;55.698;37.460;2023-01-29T14:45:50;99022.00;;;-1.31;70.54
44027;BME280;29696;55.698;37.460;2023-01-29T14:48:37;99013.00;;;-1.24;70.79
44027;BME280;29696;55.698;37.460;2023-01-29T14:51:13;99015.66;;;-1.26;70.93
44027;BME280;29696;55.698;37.460;2023-01-29T14:54:01;99021.53;;;-1.22;70.80
44027;BME280;29696;55.698;37.460;2023-01-29T14:56:56;99022.44;;;-1.23;71.02
44027;BME280;29696;55.698;37.460;2023-01-29T15:02:44;99021.06;;;-1.30;70.73
44027;BME280;29696;55.698;37.460;2023-01-29T15:05:16;99016.81;;;-1.31;71.13
44027;BME280;29696;55.698;37.460;2023-01-29T15:08:21;99013.00;;;-1.24;71.43
44027;BME280;29696;55.698;37.460;2023-01-29T15:10:53;99007.44;;;-1.34;71.61
44027;BME280;29696;55.698;37.460;2023-01-29T15:13:46;99010.03;;;-1.34;71.55
44027;BME280;29696;55.698;37.460;2023-01-29T15:16:18;99013.81;;;-1.41;71.74
44027;BME280;29696;55.698;37.460;2023-01-29T15:18:48;99010.63;;;-1.46;72.35
44027;BME280;29696;55.698;37.460;2023-01-29T15:21:18;99012.50;;;-1.50;72.78
44027;BME280;29696;55.698;37.460;2023-01-29T15:23:45;99016.84;;;-1.50;73.03
44027;BME280;29696;55.698;37.460;2023-01-29T15:26:18;99014.03;;;-1.46;73.34
44027;BME280;29696;55.698;37.460;2023-01-29T15:28:53;99016.63;;;-1.46;73.11
44027;BME280;29696;55.698;37.460;2023-01-29T15:31:20;99016.25;;;-1.55;73.30
44027;BME280;29696;55.698;37.460;2023-01-29T15:33:48;99019.03;;;-1.60;74.05
44027;BME280;29696;55.698;37.460;2023-01-29T15:36:21;99018.19;;;-1.61;74.57
44027;BME280;29696;55.698;37.460;2023-01-29T15:38:48;99017.81;;;-1.70;74.70
44027;BME280;29696;55.698;37.460;2023-01-29T15:41:29;99024.09;;;-1.76;75.22
44027;BME280;29696;55.698;37.460;2023-01-29T15:43:59;99018.09;;;-1.76;75.69
44027;BME280;29696;55.698;37.460;2023-01-29T15:49:24;99011.34;;;-1.80;76.25